| Date | Time | Temp. (oF) | Dew Point (oF) | Rel. Hum. (%) | Press. (in.) | Wind Dir. | Wind Speed (mph) | Hourly Rainfall (in.) |
|
|---|---|---|---|---|---|---|---|---|---|
| 1 | 01/03 | 00:00 | 27 | 19 | 74 | 29.91 | WSW | 4 | 0.00 |
| 2 | 01/02 | 23:00 | 28 | 21 | 76 | 29.91 | WNW | 2 | 0.00 |
| 3 | 01/02 | 22:00 | 28 | 22 | 80 | 29.90 | W | 6 | 0.00 |
| 4 | 01/02 | 21:00 | 30 | 23 | 76 | 29.91 | W | 6 | 0.00 |
| 5 | 01/02 | 20:00 | 30 | 20 | 68 | 29.91 | SSW | 3 | 0.00 |
| 6 | 01/02 | 19:00 | 31 | 20 | 65 | 29.90 | WNW | 8 | 0.00 |
| 7 | 01/02 | 18:00 | 31 | 20 | 65 | 29.89 | W | 3 | 0.00 |
| 8 | 01/02 | 17:00 | 33 | 20 | 61 | 29.87 | WSW | 4 | 0.00 |
| 9 | 01/02 | 16:00 | 35 | 20 | 55 | 29.83 | W | 8 | 0.00 |
| 10 | 01/02 | 15:00 | 35 | 19 | 52 | 29.82 | WSW | 5 | 0.00 |
| 11 | 01/02 | 14:00 | 35 | 18 | 51 | 29.82 | WSW | 9 | 0.00 |
| 12 | 01/02 | 13:00 | 37 | 18 | 47 | 29.83 | WNW | 13 | 0.00 |
| 13 | 01/02 | 12:00 | 36 | 19 | 51 | 29.85 | NW | 5 | 0.00 |
| 14 | 01/02 | 11:00 | 35 | 19 | 53 | 29.87 | WNW | 9 | 0.00 |
| 15 | 01/02 | 10:00 | 36 | 21 | 55 | 29.89 | WSW | 13 | 0.00 |
| 16 | 01/02 | 09:00 | 33 | 20 | 59 | 29.88 | SW | 7 | 0.00 |
| 17 | 01/02 | 08:00 | 30 | 18 | 62 | 29.88 | W | 5 | 0.00 |
| 18 | 01/02 | 07:00 | 31 | 17 | 58 | 29.87 | WSW | 6 | 0.00 |
| 19 | 01/02 | 06:00 | 32 | 16 | 52 | 29.85 | WNW | 5 | 0.00 |
| 20 | 01/02 | 05:00 | 34 | 14 | 44 | 29.85 | NW | 7 | 0.00 |
| 21 | 01/02 | 04:00 | 36 | 23 | 60 | 29.85 | SW | 9 | 0.00 |
| 22 | 01/02 | 03:00 | 38 | 29 | 71 | 29.83 | NW | 20 | 0.00 |
| 23 | 01/02 | 02:00 | 39 | 27 | 64 | 29.82 | W | 13 | 0.00 |
| 24 | 01/02 | 01:00 | 40 | 28 | 62 | 29.83 | WSW | 7 | 0.00 |